sensor_id;sensor_type;location;lat;lon;timestamp;pressure;altitude;pressure_sealevel;temperature;humidity
14232;BME280;7200;52.194;9.900;2023-04-29T00:01:49;99992.94;;;14.52;100.00
14232;BME280;7200;52.194;9.900;2023-04-29T00:04:14;99992.94;;;14.37;100.00
14232;BME280;7200;52.194;9.900;2023-04-29T00:06:40;99991.34;;;14.19;100.00
14232;BME280;7200;52.194;9.900;2023-04-29T00:09:06;99998.59;;;14.31;100.00
14232;BME280;7200;52.194;9.900;2023-04-29T00:11:31;100021.25;;;14.67;100.00
14232;BME280;7200;52.194;9.900;2023-04-29T00:13:56;99984.16;;;14.21;100.00
14232;BME280;7200;52.194;9.900;2023-04-29T00:16:21;100013.19;;;14.38;100.00
14232;BME280;7200;52.194;9.900;2023-04-29T00:18:47;100020.16;;;14.71;100.00
14232;BME280;7200;52.194;9.900;2023-04-29T00:21:12;100011.78;;;14.63;100.00
14232;BME280;7200;52.194;9.900;2023-04-29T00:23:37;100012.72;;;14.62;100.00
14232;BME280;7200;52.194;9.900;2023-04-29T00:26:03;100003.03;;;14.61;100.00
14232;BME280;7200;52.194;9.900;2023-04-29T00:28:28;99987.78;;;14.34;100.00
14232;BME280;7200;52.194;9.900;2023-04-29T00:30:53;100012.19;;;14.71;100.00
14232;BME280;7200;52.194;9.900;2023-04-29T00:33:20;99994.84;;;14.50;100.00
14232;BME280;7200;52.194;9.900;2023-04-29T00:35:45;99997.88;;;14.44;100.00
14232;BME280;7200;52.194;9.900;2023-04-29T00:38:11;100012.16;;;14.57;100.00
14232;BME280;7200;52.194;9.900;2023-04-29T00:40:36;99978.56;;;14.26;100.00
14232;BME280;7200;52.194;9.900;2023-04-29T00:43:01;100010.25;;;14.59;100.00
14232;BME280;7200;52.194;9.900;2023-04-29T00:45:27;100012.66;;;14.64;100.00
14232;BME280;7200;52.194;9.900;2023-04-29T00:47:52;99998.69;;;14.60;100.00
14232;BME280;7200;52.194;9.900;2023-04-29T00:50:17;99989.34;;;14.53;100.00
14232;BME280;7200;52.194;9.900;2023-04-29T00:52:43;99991.72;;;14.43;100.00
14232;BME280;7200;52.194;9.900;2023-04-29T00:55:10;100007.22;;;14.35;100.00
14232;BME280;7200;52.194;9.900;2023-04-29T00:57:37;100003.88;;;14.31;100.00
14232;BME280;7200;52.194;9.900;2023-04-29T01:00:03;100023.66;;;14.56;100.00
14232;BME280;7200;52.194;9.900;2023-04-29T01:02:29;100019.56;;;14.66;100.00
14232;BME280;7200;52.194;9.900;2023-04-29T01:04:54;99985.91;;;14.06;100.00
14232;BME280;7200;52.194;9.900;2023-04-29T01:07:35;100005.22;;;14.24;100.00
14232;BME280;7200;52.194;9.900;2023-04-29T01:17:50;100018.03;;;13.86;100.00
14232;BME280;7200;52.194;9.900;2023-04-29T01:20:18;100024.16;;;13.86;100.00
14232;BME280;7200;52.194;9.900;2023-04-29T01:22:44;100015.72;;;13.79;100.00
14232;BME280;7200;52.194;9.900;2023-04-29T01:25:10;100034.28;;;13.79;100.00
14232;BME280;7200;52.194;9.900;2023-04-29T01:27:41;100018.38;;;13.48;100.00
14232;BME280;7200;52.194;9.900;2023-04-29T01:32:55;100053.44;;;13.69;100.00
14232;BME280;7200;52.194;9.900;2023-04-29T01:37:57;100063.25;;;13.67;100.00
14232;BME280;7200;52.194;9.900;2023-04-29T01:40:37;100068.16;;;13.74;100.00
14232;BME280;7200;52.194;9.900;2023-04-29T01:43:07;100044.53;;;13.54;100.00
14232;BME280;7200;52.194;9.900;2023-04-29T01:45:37;100046.94;;;13.58;100.00
14232;BME280;7200;52.194;9.900;2023-04-29T01:48:05;100088.06;;;13.97;100.00
14232;BME280;7200;52.194;9.900;2023-04-29T01:50:31;100071.75;;;13.89;100.00
14232;BME280;7200;52.194;9.900;2023-04-29T01:52:56;100061.47;;;13.83;100.00
14232;BME280;7200;52.194;9.900;2023-04-29T01:55:22;100052.06;;;13.77;100.00
14232;BME280;7200;52.194;9.900;2023-04-29T01:57:47;100061.84;;;13.77;100.00
14232;BME280;7200;52.194;9.900;2023-04-29T02:00:13;100070.72;;;13.76;100.00
14232;BME280;7200;52.194;9.900;2023-04-29T02:02:38;100048.22;;;13.51;100.00
14232;BME280;7200;52.194;9.900;2023-04-29T02:05:03;100076.72;;;13.79;100.00
14232;BME280;7200;52.194;9.900;2023-04-29T02:07:29;100078.25;;;13.68;100.00
14232;BME280;7200;52.194;9.900;2023-04-29T02:09:54;100074.56;;;13.54;100.00
14232;BME280;7200;52.194;9.900;2023-04-29T02:12:19;100081.75;;;13.68;100.00
14232;BME280;7200;52.194;9.900;2023-04-29T02:14:45;100067.09;;;13.45;100.00
14232;BME280;7200;52.194;9.900;2023-04-29T02:17:12;100085.50;;;13.64;100.00
14232;BME280;7200;52.194;9.900;2023-04-29T02:19:37;100095.09;;;13.82;100.00
14232;BME280;7200;52.194;9.900;2023-04-29T02:22:02;100068.22;;;13.57;100.00
14232;BME280;7200;52.194;9.900;2023-04-29T02:24:28;100106.28;;;13.88;100.00
14232;BME280;7200;52.194;9.900;2023-04-29T02:26:53;100088.84;;;13.68;100.00
14232;BME280;7200;52.194;9.900;2023-04-29T02:29:18;100062.75;;;13.27;100.00
14232;BME280;7200;52.194;9.900;2023-04-29T02:31:44;100075.94;;;13.11;100.00
14232;BME280;7200;52.194;9.900;2023-04-29T02:34:09;100105.53;;;13.36;100.00
14232;BME280;7200;52.194;9.900;2023-04-29T02:36:34;100106.94;;;13.26;100.00
14232;BME280;7200;52.194;9.900;2023-04-29T02:39:00;100097.16;;;12.93;100.00
14232;BME280;7200;52.194;9.900;2023-04-29T02:41:25;100109.31;;;12.97;100.00
14232;BME280;7200;52.194;9.900;2023-04-29T02:43:50;100129.25;;;13.04;100.00
14232;BME280;7200;52.194;9.900;2023-04-29T02:46:16;100124.03;;;13.03;100.00
14232;BME280;7200;52.194;9.900;2023-04-29T02:48:42;100143.75;;;13.15;100.00
14232;BME280;7200;52.194;9.900;2023-04-29T02:51:08;100161.63;;;13.27;100.00
14232;BME280;7200;52.194;9.900;2023-04-29T02:53:33;100140.94;;;13.00;100.00
14232;BME280;7200;52.194;9.900;2023-04-29T02:55:59;100141.84;;;12.99;100.00
14232;BME280;7200;52.194;9.900;2023-04-29T02:58:24;100165.00;;;13.31;100.00
14232;BME280;7200;52.194;9.900;2023-04-29T03:00:49;100143.63;;;13.16;100.00
14232;BME280;7200;52.194;9.900;2023-04-29T03:03:15;100157.97;;;13.30;100.00
14232;BME280;7200;52.194;9.900;2023-04-29T03:05:40;100142.94;;;13.13;100.00
14232;BME280;7200;52.194;9.900;2023-04-29T03:08:05;100161.88;;;13.05;100.00
14232;BME280;7200;52.194;9.900;2023-04-29T03:10:31;100168.19;;;13.02;100.00
14232;BME280;7200;52.194;9.900;2023-04-29T03:12:56;100164.63;;;13.03;100.00
14232;BME280;7200;52.194;9.900;2023-04-29T03:15:22;100159.53;;;12.81;100.00
14232;BME280;7200;52.194;9.900;2023-04-29T03:17:47;100180.88;;;12.78;100.00
14232;BME280;7200;52.194;9.900;2023-04-29T03:20:12;100185.25;;;12.97;100.00
14232;BME280;7200;52.194;9.900;2023-04-29T03:22:38;100189.19;;;12.71;100.00
14232;BME280;7200;52.194;9.900;2023-04-29T03:25:04;100202.81;;;12.63;100.00
14232;BME280;7200;52.194;9.900;2023-04-29T03:27:29;100196.38;;;12.50;100.00
14232;BME280;7200;52.194;9.900;2023-04-29T03:29:54;100197.25;;;12.50;100.00
14232;BME280;7200;52.194;9.900;2023-04-29T03:32:20;100198.25;;;12.48;100.00
14232;BME280;7200;52.194;9.900;2023-04-29T03:34:45;100208.41;;;12.57;100.00
14232;BME280;7200;52.194;9.900;2023-04-29T03:37:10;100202.47;;;12.52;100.00
14232;BME280;7200;52.194;9.900;2023-04-29T03:39:35;100206.91;;;12.51;100.00
14232;BME280;7200;52.194;9.900;2023-04-29T03:42:01;100202.91;;;12.42;100.00
14232;BME280;7200;52.194;9.900;2023-04-29T03:44:27;100194.41;;;12.36;100.00
14232;BME280;7200;52.194;9.900;2023-04-29T03:46:53;100227.06;;;12.54;100.00
14232;BME280;7200;52.194;9.900;2023-04-29T03:49:18;100212.75;;;12.58;100.00
14232;BME280;7200;52.194;9.900;2023-04-29T03:51:43;100208.34;;;12.58;100.00
14232;BME280;7200;52.194;9.900;2023-04-29T03:54:12;100216.03;;;12.63;100.00
14232;BME280;7200;52.194;9.900;2023-04-29T03:56:37;100210.88;;;12.60;100.00
14232;BME280;7200;52.194;9.900;2023-04-29T03:59:03;100205.88;;;12.54;100.00
14232;BME280;7200;52.194;9.900;2023-04-29T04:01:28;100205.47;;;12.44;100.00
14232;BME280;7200;52.194;9.900;2023-04-29T04:03:53;100205.47;;;12.44;100.00
14232;BME280;7200;52.194;9.900;2023-04-29T04:06:19;100215.22;;;12.43;100.00
14232;BME280;7200;52.194;9.900;2023-04-29T04:08:44;100208.69;;;12.32;100.00
14232;BME280;7200;52.194;9.900;2023-04-29T04:11:10;100236.78;;;12.53;100.00
14232;BME280;7200;52.194;9.900;2023-04-29T04:13:37;100229.34;;;12.42;100.00
14232;BME280;7200;52.194;9.900;2023-04-29T04:16:02;100209.78;;;12.08;100.00
14232;BME280;7200;52.194;9.900;2023-04-29T04:18:28;100194.94;;;11.85;100.00
14232;BME280;7200;52.194;9.900;2023-04-29T04:20:53;100245.50;;;11.98;100.00
14232;BME280;7200;52.194;9.900;2023-04-29T04:23:18;100256.59;;;12.06;100.00
14232;BME280;7200;52.194;9.900;2023-04-29T04:25:45;100253.50;;;11.97;100.00
14232;BME280;7200;52.194;9.900;2023-04-29T04:28:11;100241.34;;;11.72;100.00
14232;BME280;7200;52.194;9.900;2023-04-29T04:30:36;100272.00;;;11.76;100.00
14232;BME280;7200;52.194;9.900;2023-04-29T04:33:01;100282.53;;;11.98;100.00
14232;BME280;7200;52.194;9.900;2023-04-29T04:35:28;100304.22;;;12.25;100.00
14232;BME280;7200;52.194;9.900;2023-04-29T04:37:53;100269.50;;;11.94;100.00
14232;BME280;7200;52.194;9.900;2023-04-29T04:40:18;100284.75;;;11.87;100.00
14232;BME280;7200;52.194;9.900;2023-04-29T04:42:43;100281.72;;;11.76;100.00
14232;BME280;7200;52.194;9.900;2023-04-29T04:45:09;100305.59;;;11.95;100.00
14232;BME280;7200;52.194;9.900;2023-04-29T04:47:35;100307.56;;;11.90;100.00
14232;BME280;7200;52.194;9.900;2023-04-29T04:50:01;100298.31;;;11.79;100.00
14232;BME280;7200;52.194;9.900;2023-04-29T04:52:26;100316.47;;;11.87;100.00
14232;BME280;7200;52.194;9.900;2023-04-29T04:54:51;100319.78;;;11.92;100.00
14232;BME280;7200;52.194;9.900;2023-04-29T04:57:17;100313.38;;;11.77;100.00
14232;BME280;7200;52.194;9.900;2023-04-29T04:59:42;100326.09;;;11.90;100.00
14232;BME280;7200;52.194;9.900;2023-04-29T05:02:07;100329.75;;;11.85;100.00
14232;BME280;7200;52.194;9.900;2023-04-29T05:04:32;100332.47;;;11.84;100.00
14232;BME280;7200;52.194;9.900;2023-04-29T05:06:58;100328.31;;;11.78;100.00
14232;BME280;7200;52.194;9.900;2023-04-29T05:09:23;100346.63;;;11.83;100.00
14232;BME280;7200;52.194;9.900;2023-04-29T05:11:48;100347.47;;;11.83;100.00
14232;BME280;7200;52.194;9.900;2023-04-29T05:14:14;100355.34;;;11.85;100.00
14232;BME280;7200;52.194;9.900;2023-04-29T05:16:39;100349.31;;;11.81;100.00
14232;BME280;7200;52.194;9.900;2023-04-29T05:19:04;100364.84;;;11.91;100.00
14232;BME280;7200;52.194;9.900;2023-04-29T05:21:30;100348.97;;;11.91;100.00
14232;BME280;7200;52.194;9.900;2023-04-29T05:23:55;100359.22;;;11.76;100.00
14232;BME280;7200;52.194;9.900;2023-04-29T05:26:21;100363.41;;;11.82;100.00
14232;BME280;7200;52.194;9.900;2023-04-29T05:28:46;100352.31;;;11.74;100.00
14232;BME280;7200;52.194;9.900;2023-04-29T05:31:12;100360.22;;;11.74;100.00
14232;BME280;7200;52.194;9.900;2023-04-29T05:33:37;100355.38;;;11.63;100.00
14232;BME280;7200;52.194;9.900;2023-04-29T05:36:02;100355.38;;;11.63;100.00
14232;BME280;7200;52.194;9.900;2023-04-29T05:38:28;100363.00;;;11.71;100.00
14232;BME280;7200;52.194;9.900;2023-04-29T05:40:56;100378.34;;;11.83;100.00
14232;BME280;7200;52.194;9.900;2023-04-29T05:43:22;100386.06;;;11.87;100.00
14232;BME280;7200;52.194;9.900;2023-04-29T05:45:48;100385.38;;;11.82;100.00
14232;BME280;7200;52.194;9.900;2023-04-29T05:48:13;100378.41;;;11.81;100.00
14232;BME280;7200;52.194;9.900;2023-04-29T05:50:38;100385.72;;;11.75;100.00
14232;BME280;7200;52.194;9.900;2023-04-29T05:53:03;100402.03;;;12.06;100.00
14232;BME280;7200;52.194;9.900;2023-04-29T05:55:29;100387.13;;;11.83;100.00
14232;BME280;7200;52.194;9.900;2023-04-29T05:57:54;100385.38;;;11.82;100.00
14232;BME280;7200;52.194;9.900;2023-04-29T06:00:20;100409.84;;;12.10;100.00
14232;BME280;7200;52.194;9.900;2023-04-29T06:02:45;100402.97;;;11.83;100.00
14232;BME280;7200;52.194;9.900;2023-04-29T06:05:10;100412.16;;;11.97;100.00
14232;BME280;7200;52.194;9.900;2023-04-29T06:07:36;100418.97;;;12.23;100.00
14232;BME280;7200;52.194;9.900;2023-04-29T06:10:01;100402.81;;;12.08;100.00
14232;BME280;7200;52.194;9.900;2023-04-29T06:12:26;100386.78;;;11.93;100.00
14232;BME280;7200;52.194;9.900;2023-04-29T06:14:52;100403.59;;;12.11;100.00
14232;BME280;7200;52.194;9.900;2023-04-29T06:17:17;100405.47;;;12.08;100.00
14232;BME280;7200;52.194;9.900;2023-04-29T06:19:42;100417.72;;;12.11;100.00
14232;BME280;7200;52.194;9.900;2023-04-29T06:22:07;100405.53;;;12.07;100.00
14232;BME280;7200;52.194;9.900;2023-04-29T06:24:33;100397.47;;;11.90;100.00
14232;BME280;7200;52.194;9.900;2023-04-29T06:26:58;100392.84;;;11.73;100.00
14232;BME280;7200;52.194;9.900;2023-04-29T06:29:23;100413.41;;;11.86;100.00
14232;BME280;7200;52.194;9.900;2023-04-29T06:31:49;100423.06;;;11.87;100.00
14232;BME280;7200;52.194;9.900;2023-04-29T06:34:14;100427.16;;;11.96;100.00
14232;BME280;7200;52.194;9.900;2023-04-29T06:36:40;100385.25;;;11.65;100.00
14232;BME280;7200;52.194;9.900;2023-04-29T06:39:05;100394.03;;;11.65;100.00
14232;BME280;7200;52.194;9.900;2023-04-29T06:41:31;100395.81;;;11.65;100.00
14232;BME280;7200;52.194;9.900;2023-04-29T06:43:56;100393.88;;;11.48;100.00
14232;BME280;7200;52.194;9.900;2023-04-29T06:46:21;100421.50;;;11.61;100.00
14232;BME280;7200;52.194;9.900;2023-04-29T06:48:47;100450.34;;;11.90;100.00
14232;BME280;7200;52.194;9.900;2023-04-29T06:51:12;100432.13;;;11.82;100.00
14232;BME280;7200;52.194;9.900;2023-04-29T06:53:37;100435.25;;;11.69;100.00
14232;BME280;7200;52.194;9.900;2023-04-29T06:56:03;100456.03;;;11.79;100.00
14232;BME280;7200;52.194;9.900;2023-04-29T06:58:29;100454.63;;;11.70;100.00
14232;BME280;7200;52.194;9.900;2023-04-29T07:00:55;100450.19;;;11.48;100.00
14232;BME280;7200;52.194;9.900;2023-04-29T07:03:20;100454.09;;;11.40;100.00
14232;BME280;7200;52.194;9.900;2023-04-29T07:05:45;100480.31;;;11.44;100.00
14232;BME280;7200;52.194;9.900;2023-04-29T07:08:11;100500.00;;;11.59;100.00
14232;BME280;7200;52.194;9.900;2023-04-29T07:10:37;100499.69;;;11.67;100.00
14232;BME280;7200;52.194;9.900;2023-04-29T07:13:03;100492.47;;;11.48;100.00
14232;BME280;7200;52.194;9.900;2023-04-29T07:15:32;100521.19;;;11.80;100.00
14232;BME280;7200;52.194;9.900;2023-04-29T07:17:57;100514.19;;;11.79;100.00
14232;BME280;7200;52.194;9.900;2023-04-29T07:20:23;100519.47;;;11.79;100.00
14232;BME280;7200;52.194;9.900;2023-04-29T07:22:48;100523.31;;;11.72;100.00
14232;BME280;7200;52.194;9.900;2023-04-29T07:25:14;100522.78;;;11.62;100.00
14232;BME280;7200;52.194;9.900;2023-04-29T07:27:39;100533.00;;;11.71;100.00
14232;BME280;7200;52.194;9.900;2023-04-29T07:30:05;100541.97;;;11.89;100.00
14232;BME280;7200;52.194;9.900;2023-04-29T07:32:31;100547.03;;;11.95;100.00
14232;BME280;7200;52.194;9.900;2023-04-29T07:34:57;100555.19;;;11.89;100.00
14232;BME280;7200;52.194;9.900;2023-04-29T07:37:23;100547.91;;;11.96;100.00
14232;BME280;7200;52.194;9.900;2023-04-29T07:39:48;100562.75;;;12.20;100.00
14232;BME280;7200;52.194;9.900;2023-04-29T07:42:13;100561.41;;;12.32;100.00
14232;BME280;7200;52.194;9.900;2023-04-29T07:44:39;100547.00;;;12.39;100.00
14232;BME280;7200;52.194;9.900;2023-04-29T07:47:04;100556.94;;;12.55;100.00
14232;BME280;7200;52.194;9.900;2023-04-29T07:49:29;100546.41;;;12.53;100.00
14232;BME280;7200;52.194;9.900;2023-04-29T07:51:55;100569.19;;;12.78;100.00
14232;BME280;7200;52.194;9.900;2023-04-29T07:54:20;100562.75;;;12.83;100.00
14232;BME280;7200;52.194;9.900;2023-04-29T07:56:46;100540.63;;;12.84;100.00
14232;BME280;7200;52.194;9.900;2023-04-29T07:59:11;100522.72;;;12.71;100.00
14232;BME280;7200;52.194;9.900;2023-04-29T08:01:37;100542.00;;;13.14;100.00
14232;BME280;7200;52.194;9.900;2023-04-29T08:04:02;100543.06;;;13.30;100.00
14232;BME280;7200;52.194;9.900;2023-04-29T08:06:27;100572.69;;;13.95;100.00
14232;BME280;7200;52.194;9.900;2023-04-29T08:08:53;100543.44;;;14.14;100.00
14232;BME280;7200;52.194;9.900;2023-04-29T08:11:20;100454.22;;;13.21;100.00
14232;BME280;7200;52.194;9.900;2023-04-29T08:13:46;100488.25;;;13.50;100.00
14232;BME280;7200;52.194;9.900;2023-04-29T08:16:12;100480.50;;;13.26;100.00
14232;BME280;7200;52.194;9.900;2023-04-29T08:18:38;100511.81;;;13.56;100.00
14232;BME280;7200;52.194;9.900;2023-04-29T08:21:04;100503.28;;;13.68;100.00
14232;BME280;7200;52.194;9.900;2023-04-29T08:23:30;100478.78;;;13.63;100.00
14232;BME280;7200;52.194;9.900;2023-04-29T08:25:56;100473.13;;;13.52;100.00
14232;BME280;7200;52.194;9.900;2023-04-29T08:28:21;100500.59;;;14.05;100.00
14232;BME280;7200;52.194;9.900;2023-04-29T08:30:47;100450.81;;;13.38;100.00
14232;BME280;7200;52.194;9.900;2023-04-29T08:33:12;100460.91;;;13.49;100.00
14232;BME280;7200;52.194;9.900;2023-04-29T08:35:38;100485.19;;;13.76;100.00
14232;BME280;7200;52.194;9.900;2023-04-29T08:38:04;100489.28;;;14.01;100.00
14232;BME280;7200;52.194;9.900;2023-04-29T08:40:33;100475.88;;;13.87;100.00
14232;BME280;7200;52.194;9.900;2023-04-29T08:42:59;100490.31;;;14.33;100.00
14232;BME280;7200;52.194;9.900;2023-04-29T08:45:26;100491.25;;;14.50;100.00
14232;BME280;7200;52.194;9.900;2023-04-29T08:47:52;100519.16;;;15.09;100.00
14232;BME280;7200;52.194;9.900;2023-04-29T08:50:18;100463.16;;;15.12;100.00
14232;BME280;7200;52.194;9.900;2023-04-29T08:52:43;100435.69;;;14.80;100.00
14232;BME280;7200;52.194;9.900;2023-04-29T08:55:08;100455.81;;;14.68;100.00
14232;BME280;7200;52.194;9.900;2023-04-29T08:57:37;100451.75;;;14.61;100.00
14232;BME280;7200;52.194;9.900;2023-04-29T09:00:07;100485.66;;;14.89;100.00
14232;BME280;7200;52.194;9.900;2023-04-29T09:02:39;100470.50;;;14.91;100.00
14232;BME280;7200;52.194;9.900;2023-04-29T09:05:09;100430.97;;;14.69;100.00
14232;BME280;7200;52.194;9.900;2023-04-29T09:07:38;100481.94;;;15.57;100.00
14232;BME280;7200;52.194;9.900;2023-04-29T09:10:04;100417.22;;;15.10;100.00
14232;BME280;7200;52.194;9.900;2023-04-29T09:12:30;100429.41;;;15.14;100.00
14232;BME280;7200;52.194;9.900;2023-04-29T09:14:56;100466.72;;;15.76;100.00
14232;BME280;7200;52.194;9.900;2023-04-29T09:23:06;100462.47;;;16.19;100.00
14232;BME280;7200;52.194;9.900;2023-04-29T09:25:32;100417.81;;;16.24;100.00
14232;BME280;7200;52.194;9.900;2023-04-29T09:27:57;100431.91;;;15.95;100.00
14232;BME280;7200;52.194;9.900;2023-04-29T09:30:23;100439.75;;;15.83;100.00
14232;BME280;7200;52.194;9.900;2023-04-29T09:33:20;100394.69;;;15.02;100.00
14232;BME280;7200;52.194;9.900;2023-04-29T09:35:45;100405.72;;;15.10;100.00
14232;BME280;7200;52.194;9.900;2023-04-29T09:38:14;100440.63;;;15.35;100.00
14232;BME280;7200;52.194;9.900;2023-04-29T09:40:43;100438.13;;;15.32;100.00
14232;BME280;7200;52.194;9.900;2023-04-29T09:43:15;100422.44;;;15.44;100.00
14232;BME280;7200;52.194;9.900;2023-04-29T09:45:46;100423.28;;;15.60;100.00
14232;BME280;7200;52.194;9.900;2023-04-29T09:48:13;100395.94;;;15.42;100.00
14232;BME280;7200;52.194;9.900;2023-04-29T09:50:40;100444.94;;;16.00;100.00
14232;BME280;7200;52.194;9.900;2023-04-29T09:53:08;100421.22;;;15.65;100.00
14232;BME280;7200;52.194;9.900;2023-04-29T09:55:35;100403.06;;;15.10;100.00
14232;BME280;7200;52.194;9.900;2023-04-29T09:58:01;100454.59;;;15.71;100.00
14232;BME280;7200;52.194;9.900;2023-04-29T10:00:30;100460.34;;;15.79;100.00
14232;BME280;7200;52.194;9.900;2023-04-29T10:02:58;100419.66;;;15.61;100.00
14232;BME280;7200;52.194;9.900;2023-04-29T10:05:27;100399.34;;;15.44;100.00
14232;BME280;7200;52.194;9.900;2023-04-29T10:07:53;100396.44;;;15.49;100.00
14232;BME280;7200;52.194;9.900;2023-04-29T10:10:20;100415.09;;;15.63;100.00
14232;BME280;7200;52.194;9.900;2023-04-29T10:12:45;100418.44;;;15.67;100.00
14232;BME280;7200;52.194;9.900;2023-04-29T10:15:40;100447.66;;;16.14;100.00
14232;BME280;7200;52.194;9.900;2023-04-29T10:20:45;100414.63;;;15.41;100.00
14232;BME280;7200;52.194;9.900;2023-04-29T10:23:12;100441.91;;;15.76;100.00
14232;BME280;7200;52.194;9.900;2023-04-29T10:25:38;100414.94;;;15.66;100.00
14232;BME280;7200;52.194;9.900;2023-04-29T10:28:08;100408.28;;;15.27;100.00
14232;BME280;7200;52.194;9.900;2023-04-29T10:30:39;100434.78;;;15.29;100.00
14232;BME280;7200;52.194;9.900;2023-04-29T10:33:07;100431.03;;;15.17;100.00
14232;BME280;7200;52.194;9.900;2023-04-29T10:35:35;100429.88;;;14.89;100.00
14232;BME280;7200;52.194;9.900;2023-04-29T10:38:16;100460.38;;;15.31;100.00
14232;BME280;7200;52.194;9.900;2023-04-29T10:40:46;100471.56;;;15.36;100.00
14232;BME280;7200;52.194;9.900;2023-04-29T10:43:12;100450.66;;;15.30;100.00
14232;BME280;7200;52.194;9.900;2023-04-29T10:45:38;100456.66;;;15.50;100.00
14232;BME280;7200;52.194;9.900;2023-04-29T10:53:17;100431.88;;;15.02;100.00
14232;BME280;7200;52.194;9.900;2023-04-29T10:55:46;100466.59;;;15.46;100.00
14232;BME280;7200;52.194;9.900;2023-04-29T11:00:58;100465.47;;;15.82;100.00
14232;BME280;7200;52.194;9.900;2023-04-29T11:03:49;100417.66;;;15.50;100.00
14232;BME280;7200;52.194;9.900;2023-04-29T11:09:13;100429.13;;;15.19;100.00
14232;BME280;7200;52.194;9.900;2023-04-29T11:16:58;100448.91;;;15.61;100.00
14232;BME280;7200;52.194;9.900;2023-04-29T11:19:30;100446.09;;;15.80;100.00
14232;BME280;7200;52.194;9.900;2023-04-29T11:22:07;100393.25;;;15.74;100.00
14232;BME280;7200;52.194;9.900;2023-04-29T11:24:34;100419.63;;;15.93;100.00
14232;BME280;7200;52.194;9.900;2023-04-29T11:27:01;100426.00;;;16.35;100.00
14232;BME280;7200;52.194;9.900;2023-04-29T11:29:31;100424.22;;;16.64;100.00
14232;BME280;7200;52.194;9.900;2023-04-29T11:32:00;100400.00;;;16.10;100.00
14232;BME280;7200;52.194;9.900;2023-04-29T11:34:26;100420.97;;;16.00;100.00
14232;BME280;7200;52.194;9.900;2023-04-29T11:36:52;100324.47;;;15.06;100.00
14232;BME280;7200;52.194;9.900;2023-04-29T11:39:17;100412.00;;;15.87;100.00
14232;BME280;7200;52.194;9.900;2023-04-29T11:41:43;100398.19;;;15.80;100.00
14232;BME280;7200;52.194;9.900;2023-04-29T11:44:08;100379.31;;;15.69;100.00
14232;BME280;7200;52.194;9.900;2023-04-29T11:46:35;100394.34;;;15.70;100.00
14232;BME280;7200;52.194;9.900;2023-04-29T11:49:01;100390.84;;;15.53;100.00
14232;BME280;7200;52.194;9.900;2023-04-29T11:51:26;100392.81;;;15.66;100.00
14232;BME280;7200;52.194;9.900;2023-04-29T11:53:52;100431.75;;;16.13;100.00
14232;BME280;7200;52.194;9.900;2023-04-29T11:56:20;100436.16;;;16.28;100.00
14232;BME280;7200;52.194;9.900;2023-04-29T11:58:48;100397.41;;;16.08;100.00
14232;BME280;7200;52.194;9.900;2023-04-29T12:01:13;100408.03;;;15.94;100.00
14232;BME280;7200;52.194;9.900;2023-04-29T12:03:39;100403.06;;;15.88;100.00
14232;BME280;7200;52.194;9.900;2023-04-29T12:06:04;100368.94;;;15.80;100.00
14232;BME280;7200;52.194;9.900;2023-04-29T12:08:30;100418.66;;;16.39;100.00
14232;BME280;7200;52.194;9.900;2023-04-29T12:10:58;100404.13;;;16.44;100.00
14232;BME280;7200;52.194;9.900;2023-04-29T12:13:26;100408.53;;;16.60;100.00
14232;BME280;7200;52.194;9.900;2023-04-29T12:15:52;100386.44;;;16.72;100.00
14232;BME280;7200;52.194;9.900;2023-04-29T12:18:18;100374.25;;;16.53;100.00
14232;BME280;7200;52.194;9.900;2023-04-29T12:20:46;100367.13;;;16.40;100.00
14232;BME280;7200;52.194;9.900;2023-04-29T12:23:17;100342.31;;;16.39;100.00
14232;BME280;7200;52.194;9.900;2023-04-29T12:25:48;100385.72;;;16.84;100.00
14232;BME280;7200;52.194;9.900;2023-04-29T12:28:14;100326.53;;;16.50;100.00
14232;BME280;7200;52.194;9.900;2023-04-29T12:30:39;100340.22;;;16.73;100.00
14232;BME280;7200;52.194;9.900;2023-04-29T12:33:08;100368.97;;;16.82;100.00
14232;BME280;7200;52.194;9.900;2023-04-29T12:35:36;100343.53;;;16.77;100.00
14232;BME280;7200;52.194;9.900;2023-04-29T12:38:01;100410.91;;;17.35;100.00
14232;BME280;7200;52.194;9.900;2023-04-29T12:40:27;100382.38;;;17.49;100.00
14232;BME280;7200;52.194;9.900;2023-04-29T12:42:52;100338.97;;;16.79;100.00
14232;BME280;7200;52.194;9.900;2023-04-29T12:45:26;100367.16;;;16.83;100.00
14232;BME280;7200;52.194;9.900;2023-04-29T12:47:51;100390.34;;;16.81;100.00
14232;BME280;7200;52.194;9.900;2023-04-29T12:50:16;100438.03;;;17.14;100.00
14232;BME280;7200;52.194;9.900;2023-04-29T12:52:42;100370.56;;;16.99;100.00
14232;BME280;7200;52.194;9.900;2023-04-29T12:55:07;100384.28;;;17.20;100.00
14232;BME280;7200;52.194;9.900;2023-04-29T12:57:32;100381.16;;;17.13;100.00
14232;BME280;7200;52.194;9.900;2023-04-29T12:59:58;100365.97;;;17.01;100.00
14232;BME280;7200;52.194;9.900;2023-04-29T13:02:23;100353.16;;;16.93;100.00
14232;BME280;7200;52.194;9.900;2023-04-29T13:04:48;100354.56;;;16.70;100.00
14232;BME280;7200;52.194;9.900;2023-04-29T13:07:14;100317.22;;;16.29;100.00
14232;BME280;7200;52.194;9.900;2023-04-29T13:09:39;100346.69;;;16.11;100.00
14232;BME280;7200;52.194;9.900;2023-04-29T13:12:05;100418.69;;;16.67;100.00
14232;BME280;7200;52.194;9.900;2023-04-29T13:14:32;100414.44;;;16.93;100.00
14232;BME280;7200;52.194;9.900;2023-04-29T13:16:57;100400.97;;;17.09;100.00
14232;BME280;7200;52.194;9.900;2023-04-29T13:19:22;100377.06;;;17.08;100.00
14232;BME280;7200;52.194;9.900;2023-04-29T13:21:48;100379.91;;;17.19;100.00
14232;BME280;7200;52.194;9.900;2023-04-29T13:24:14;100356.41;;;16.84;100.00